Time;durP1;ratioP1;P1;durP2;ratioP2;P2;SDS_P1;SDS_P2;PMS_P1;PMS_P2;Temp;Humidity;BMP_temperature;BMP_pressure;BME280_temperature;BME280_humidity;BME280_pressure;Samples;Min_cycle;Max_cycle;Signal;HPM_P1;HPM_P2
2023/06/22 00:14:26;;;;;;;14.40;11.35;;;;;;;23.15;64.21;100376.56;30508541;28;97101;-68
2023/06/22 00:29:27;;;;;;;16.95;10.85;;;;;;;23.06;64.51;100386.16;30507347;28;97298;-69
2023/06/22 00:44:27;;;;;;;13.05;10.73;;;;;;;22.90;64.90;100409.59;30505944;28;107279;-68
2023/06/22 00:59:28;;;;;;;13.02;11.57;;;;;;;22.76;65.08;100425.38;30504041;28;115645;-69
2023/06/22 01:14:37;;;;;;;12.35;9.98;;;;;;;22.56;65.33;100426.66;30502846;28;97289;-68
2023/06/22 01:29:39;;;;;;;13.73;11.50;;;;;;;22.43;66.03;100432.38;30502123;28;96879;-68
2023/06/22 01:44:40;;;;;;;14.20;11.30;;;;;;;22.24;66.64;100439.84;30500578;28;97228;-70
2023/06/22 01:59:57;;;;;;;15.07;12.35;;;;;;;21.93;67.11;100437.38;30499112;28;97474;-69
2023/06/22 02:15:00;;;;;;;16.90;12.37;;;;;;;21.62;67.92;100439.44;30496934;28;96770;-70
2023/06/22 02:30:01;;;;;;;14.33;12.37;;;;;;;21.30;68.70;100437.06;30495126;28;97725;-70
2023/06/22 02:45:01;;;;;;;18.30;13.40;;;;;;;20.98;69.32;100455.50;30494063;28;109422;-70
2023/06/22 03:00:17;;;;;;;17.10;13.47;;;;;;;20.78;70.38;100451.25;30492309;28;96871;-70
2023/06/22 03:15:19;;;;;;;22.83;14.17;;;;;;;20.79;70.69;100460.19;30490037;28;96807;-70
2023/06/22 03:30:20;;;;;;;17.37;14.37;;;;;;;20.83;71.32;100474.94;30489534;28;97312;-69
2023/06/22 03:45:20;;;;;;;16.97;12.93;;;;;;;21.05;71.54;100499.59;30504600;28;101301;-69
2023/06/22 04:00:20;;;;;;;20.93;14.67;;;;;;;21.32;71.45;100506.44;30509359;28;97149;-70
2023/06/22 04:15:21;;;;;;;18.27;13.90;;;;;;;21.63;71.23;100510.75;30506457;28;105302;-69
2023/06/22 04:30:21;;;;;;;20.37;13.93;;;;;;;22.03;70.75;100525.44;30503844;28;97301;-70
2023/06/22 04:45:22;;;;;;;19.23;15.15;;;;;;;22.38;70.11;100528.09;30501490;28;96853;-70
2023/06/22 05:00:23;;;;;;;19.17;16.20;;;;;;;22.69;69.61;100550.44;30498726;28;97137;-71
2023/06/22 05:15:26;;;;;;;;;;;;;;;23.08;69.03;100547.88;30501062;28;97439;-69
2023/06/22 05:30:27;;;;;;;17.53;15.07;;;;;;;23.47;68.07;100539.06;30500165;28;96831;-70
2023/06/22 05:45:27;;;;;;;17.23;13.38;;;;;;;24.04;66.62;100537.19;30497857;28;96695;-70
2023/06/22 06:00:27;;;;;;;13.48;10.75;;;;;;;24.06;64.27;100546.75;30492515;28;106635;-70
2023/06/22 06:15:28;;;;;;;14.38;11.07;;;;;;;24.61;62.55;100553.16;30492719;28;104174;-70
2023/06/22 06:30:29;;;;;;;11.77;10.07;;;;;;;25.19;60.37;100574.44;30492527;28;96682;-69
2023/06/22 06:45:30;;;;;;;14.30;10.55;;;;;;;25.71;57.98;100575.69;30491047;28;96862;-70
2023/06/22 07:00:31;;;;;;;11.13;9.93;;;;;;;26.38;56.73;100573.41;30489470;28;97434;-70
2023/06/22 07:15:31;;;;;;;11.10;10.00;;;;;;;27.40;54.04;100598.56;30488216;28;96803;-71
2023/06/22 07:30:33;;;;;;;11.50;9.60;;;;;;;28.96;51.28;100606.91;30489999;28;97401;-71
2023/06/22 07:45:34;;;;;;;11.37;10.10;;;;;;;29.75;48.04;100605.25;30486257;28;97388;-70
2023/06/22 08:00:35;;;;;;;11.43;9.60;;;;;;;31.20;45.12;100588.66;30484238;28;96842;-71
2023/06/22 08:15:35;;;;;;;10.77;9.55;;;;;;;31.81;42.66;100577.72;30484803;28;110322;-69
2023/06/22 08:30:35;;;;;;;10.52;8.98;;;;;;;32.27;41.11;100570.53;30499123;28;96882;-69
2023/06/22 08:45:36;;;;;;;10.63;9.15;;;;;;;32.83;39.47;100544.47;30503594;28;111987;-71
2023/06/22 09:00:37;;;;;;;12.02;8.57;;;;;;;33.53;38.05;100541.38;30501549;28;110638;-70
2023/06/22 09:15:37;;;;;;;10.30;8.10;;;;;;;33.36;37.79;100540.16;30499700;28;96864;-69
2023/06/22 09:30:38;;;;;;;10.05;8.27;;;;;;;34.25;36.34;100544.94;30499519;28;97400;-69
2023/06/22 09:45:38;;;;;;;9.93;8.93;;;;;;;33.65;36.63;100549.09;30497583;28;97620;-68
2023/06/22 10:00:38;;;;;;;9.93;6.80;;;;;;;35.04;34.36;100523.69;30496525;28;96697;-69
2023/06/22 10:15:39;;;;;;;8.38;6.65;;;;;;;36.37;31.63;100531.19;30494455;28;97039;-69
2023/06/22 10:30:43;;;;;;;7.32;6.13;;;;;;;36.57;30.77;100509.34;30494057;28;102012;-69
2023/06/22 10:45:43;;;;;;;;;;;;;;;36.08;30.75;100482.13;30493190;28;97573;-69
2023/06/22 11:00:44;;;;;;;7.60;6.40;;;;;;;36.32;30.08;100478.72;30491067;28;97071;-70
2023/06/22 11:15:44;;;;;;;8.50;5.80;;;;;;;36.28;29.29;100471.38;30486993;28;97299;-70
2023/06/22 11:30:44;;;;;;;13.05;6.55;;;;;;;35.57;29.57;100460.69;30487086;28;97619;-70
2023/06/22 11:45:45;;;;;;;7.70;5.72;;;;;;;36.79;27.68;100451.88;30486400;28;97229;-70
2023/06/22 12:00:45;;;;;;;9.27;5.15;;;;;;;36.63;27.07;100437.81;30493786;28;112382;-70
2023/06/22 12:15:45;;;;;;;6.65;4.82;;;;;;;36.73;26.92;100417.94;30504552;28;100708;-70
2023/06/22 12:30:46;;;;;;;6.10;3.70;;;;;;;36.07;25.45;100398.16;30502476;28;107960;-70
2023/06/22 12:45:46;;;;;;;5.45;4.25;;;;;;;36.12;25.22;100382.47;30501751;28;96829;-70
2023/06/22 13:00:46;;;;;;;5.93;4.70;;;;;;;36.20;25.90;100370.47;30498792;28;107904;-70
2023/06/22 13:15:47;;;;;;;6.85;4.80;;;;;;;36.14;25.60;100363.50;30499275;28;99168;-69
2023/06/22 13:30:47;;;;;;;7.63;4.53;;;;;;;36.22;26.17;100359.84;30500134;28;99412;-70
2023/06/22 13:45:48;;;;;;;6.00;4.80;;;;;;;35.79;26.72;100347.94;30497686;28;96727;-69
2023/06/22 14:00:49;;;;;;;5.93;5.28;;;;;;;35.25;27.08;100338.31;30496992;28;97323;-69
2023/06/22 14:15:51;;;;;;;7.20;5.17;;;;;;;34.95;28.58;100337.47;30493085;28;96734;-69
2023/06/22 14:30:52;;;;;;;6.27;5.07;;;;;;;34.74;29.00;100296.66;30490222;28;97577;-69
2023/06/22 14:45:52;;;;;;;8.25;5.35;;;;;;;34.02;29.18;100296.34;30492657;28;97397;-69
2023/06/22 15:00:52;;;;;;;7.63;5.38;;;;;;;33.64;29.45;100291.44;30490903;28;97068;-70
2023/06/22 15:15:53;;;;;;;7.40;4.85;;;;;;;33.25;30.16;100273.81;30490870;28;102038;-70
2023/06/22 15:30:53;;;;;;;6.38;5.15;;;;;;;32.69;31.01;100265.94;30490793;28;97676;-70
2023/06/22 15:45:54;;;;;;;7.00;4.82;;;;;;;32.34;31.18;100257.53;30507998;28;96712;-70
2023/06/22 16:00:54;;;;;;;6.07;4.57;;;;;;;32.01;31.54;100241.25;30506686;28;96741;-70
2023/06/22 16:15:54;;;;;;;5.97;4.55;;;;;;;31.78;32.08;100215.63;30503083;28;114360;-71
2023/06/22 16:30:55;;;;;;;6.03;4.95;;;;;;;31.35;32.96;100194.84;30502947;28;101089;-71
2023/06/22 16:45:55;;;;;;;5.40;4.78;;;;;;;31.04;33.85;100183.69;30501319;28;97482;-70
2023/06/22 17:00:55;;;;;;;5.88;4.47;;;;;;;30.56;34.00;100182.16;30483839;28;111380;-69
2023/06/22 17:15:59;;;;;;;5.82;5.13;;;;;;;30.15;35.04;100149.94;30499782;28;104013;-71
2023/06/22 17:31:10;;;;;;;5.27;4.43;;;;;;;29.72;35.91;100139.97;30498273;28;97311;-70
2023/06/22 17:46:10;;;;;;;6.53;5.00;;;;;;;29.24;36.70;100138.22;30495492;28;97689;-70
2023/06/22 18:01:13;;;;;;;7.47;5.03;;;;;;;28.80;37.58;100099.06;30497468;28;97136;-70
2023/06/22 18:16:13;;;;;;;6.03;5.03;;;;;;;28.27;38.72;100097.22;30496916;28;96883;-71
2023/06/22 18:31:14;;;;;;;7.57;4.97;;;;;;;27.76;39.96;100084.84;30495726;28;97312;-70
2023/06/22 18:46:40;;;;;;;8.97;4.90;;;;;;;27.11;40.61;100074.91;30493736;28;97325;-70
2023/06/22 19:01:40;;;;;;;5.03;3.60;;;;;;;26.57;40.94;100068.34;30492777;28;97609;-70
2023/06/22 19:16:41;;;;;;;4.97;3.85;;;;;;;26.05;41.50;100080.53;30489830;28;104868;-69
2023/06/22 19:31:43;;;;;;;9.07;4.35;;;;;;;25.49;42.25;100063.94;30491090;28;97197;-69
2023/06/22 19:46:45;;;;;;;11.77;3.80;;;;;;;25.00;43.41;100043.44;30488317;28;96792;-69
2023/06/22 20:01:45;;;;;;;5.77;3.80;;;;;;;24.61;43.90;100024.81;30486941;28;97314;-68
2023/06/22 20:16:53;;;;;;;5.65;4.00;;;;;;;24.24;44.78;100080.16;30486604;28;97978;-68
2023/06/22 20:32:03;;;;;;;8.90;4.70;;;;;;;24.24;44.74;100073.91;30505492;28;96738;-68
2023/06/22 20:47:03;;;;;;;;;;;;;;;24.11;45.39;100067.03;30506022;28;97685;-68
2023/06/22 21:02:04;;;;;;;5.40;3.73;;;;;;;23.95;45.42;100033.50;30506371;28;96676;-69
2023/06/22 21:17:04;;;;;;;6.18;4.00;;;;;;;23.72;45.84;100019.16;30502913;28;96799;-70
2023/06/22 21:32:05;;;;;;;7.85;4.40;;;;;;;23.52;46.31;100002.72;30500937;28;100155;-68
2023/06/22 21:47:06;;;;;;;5.30;3.50;;;;;;;23.34;46.43;99953.09;30500821;28;97460;-68
2023/06/22 22:02:06;;;;;;;8.70;3.58;;;;;;;23.17;46.51;99865.50;30499689;28;97495;-69
2023/06/22 22:17:08;;;;;;;5.93;3.97;;;;;;;22.95;46.77;99878.09;30497888;28;96794;-68
2023/06/22 22:32:09;;;;;;;4.20;3.20;;;;;;;22.73;47.10;99877.34;30497260;28;98941;-68
2023/06/22 22:47:09;;;;;;;;;;;;;;;22.63;47.04;99873.47;30495027;28;110751;-68
2023/06/22 23:02:10;;;;;;;8.13;3.87;;;;;;;22.60;46.90;99871.28;30495461;28;96948;-68
2023/06/22 23:17:10;;;;;;;;;;;;;;;22.57;46.81;99828.38;30492839;28;110781;-68
2023/06/22 23:32:11;;;;;;;4.73;3.20;;;;;;;22.51;46.56;99793.31;30476166;28;98345;-69
2023/06/22 23:47:11;;;;;;;4.80;3.47;;;;;;;22.43;46.79;99797.28;30491611;28;96742;-68
